sensor_id;sensor_type;location;lat;lon;timestamp;pressure;altitude;pressure_sealevel;temperature;humidity
3697;BME280;60662;48.810;8.872;2023-04-04T06:59:22;97258.09;;;1.73;57.81
3697;BME280;60662;48.810;8.872;2023-04-04T07:01:20;97267.56;;;1.81;57.27
3697;BME280;60662;48.810;8.872;2023-04-04T07:02:22;97274.38;;;2.29;57.02
3697;BME280;60662;48.810;8.872;2023-04-04T07:03:24;97266.66;;;2.25;57.04
3697;BME280;60662;48.810;8.872;2023-04-04T07:04:26;97274.28;;;2.64;56.54
3697;BME280;60662;48.810;8.872;2023-04-04T07:05:27;97274.28;;;2.70;55.50
3697;BME280;60662;48.810;8.872;2023-04-04T07:06:29;97264.97;;;2.22;54.60
3697;BME280;60662;48.810;8.872;2023-04-04T07:07:31;97277.84;;;2.16;56.08
3697;BME280;60662;48.810;8.872;2023-04-04T07:08:32;97270.03;;;2.58;55.59
3697;BME280;60662;48.810;8.872;2023-04-04T07:09:37;97282.03;;;2.62;54.63
3697;BME280;60662;48.810;8.872;2023-04-04T07:10:38;97276.13;;;1.52;56.16
3697;BME280;60662;48.810;8.872;2023-04-04T07:11:41;97280.44;;;1.90;57.79
3697;BME280;60662;48.810;8.872;2023-04-04T07:12:43;97281.16;;;2.66;56.62
3697;BME280;60662;48.810;8.872;2023-04-04T07:13:44;97269.03;;;2.91;54.95
3697;BME280;60662;48.810;8.872;2023-04-04T07:14:45;97280.88;;;3.34;54.94
3697;BME280;60662;48.810;8.872;2023-04-04T07:15:47;97266.53;;;2.73;54.24
3697;BME280;60662;48.810;8.872;2023-04-04T07:16:51;97284.31;;;3.38;53.94
3697;BME280;60662;48.810;8.872;2023-04-04T07:17:53;97270.31;;;3.70;52.89
3697;BME280;60662;48.810;8.872;2023-04-04T07:18:55;97277.25;;;3.62;53.13
3697;BME280;60662;48.810;8.872;2023-04-04T07:19:57;97283.03;;;3.98;52.50
3697;BME280;60662;48.810;8.872;2023-04-04T07:20:58;97275.09;;;4.18;52.02
3697;BME280;60662;48.810;8.872;2023-04-04T07:21:59;97280.03;;;4.43;50.93
3697;BME280;60662;48.810;8.872;2023-04-04T07:23:01;97275.34;;;4.76;50.65
3697;BME280;60662;48.810;8.872;2023-04-04T07:24:02;97280.41;;;3.99;49.80
3697;BME280;60662;48.810;8.872;2023-04-04T07:25:05;97270.22;;;3.81;50.93
3697;BME280;60662;48.810;8.872;2023-04-04T07:26:06;97265.50;;;4.29;50.56
3697;BME280;60662;48.810;8.872;2023-04-04T07:27:08;97281.50;;;4.65;50.59
3697;BME280;60662;48.810;8.872;2023-04-04T07:28:09;97276.22;;;4.78;49.63
3697;BME280;60662;48.810;8.872;2023-04-04T07:29:13;97273.94;;;5.20;48.36
3697;BME280;60662;48.810;8.872;2023-04-04T07:30:15;97275.97;;;4.98;49.14
3697;BME280;60662;48.810;8.872;2023-04-04T07:31:16;97279.69;;;4.72;49.62
3697;BME280;60662;48.810;8.872;2023-04-04T07:32:18;97276.94;;;4.89;48.74
3697;BME280;60662;48.810;8.872;2023-04-04T07:33:19;97280.50;;;4.80;49.11
3697;BME280;60662;48.810;8.872;2023-04-04T07:34:21;97274.72;;;4.55;48.63
3697;BME280;60662;48.810;8.872;2023-04-04T07:35:22;97281.44;;;4.71;49.45
3697;BME280;60662;48.810;8.872;2023-04-04T07:36:24;97281.28;;;4.01;50.00
3697;BME280;60662;48.810;8.872;2023-04-04T07:37:25;97274.06;;;4.36;49.63
3697;BME280;60662;48.810;8.872;2023-04-04T07:38:27;97286.56;;;4.78;49.70
3697;BME280;60662;48.810;8.872;2023-04-04T07:39:29;97281.75;;;5.18;49.25
3697;BME280;60662;48.810;8.872;2023-04-04T07:40:30;97269.13;;;5.58;47.98
3697;BME280;60662;48.810;8.872;2023-04-04T07:41:32;97275.00;;;5.69;48.06
3697;BME280;60662;48.810;8.872;2023-04-04T07:42:33;97279.94;;;5.84;47.84
3697;BME280;60662;48.810;8.872;2023-04-04T07:43:36;97280.94;;;5.76;46.66
3697;BME280;60662;48.810;8.872;2023-04-04T07:44:38;97274.66;;;5.31;46.76
3697;BME280;60662;48.810;8.872;2023-04-04T07:45:40;97263.75;;;5.68;47.71
3697;BME280;60662;48.810;8.872;2023-04-04T07:46:41;97275.66;;;5.82;47.63
3697;BME280;60662;48.810;8.872;2023-04-04T07:47:43;97273.03;;;5.24;47.43
3697;BME280;60662;48.810;8.872;2023-04-04T07:48:45;97276.34;;;5.92;47.28
3697;BME280;60662;48.810;8.872;2023-04-04T07:49:46;97275.47;;;6.46;46.07
3697;BME280;60662;48.810;8.872;2023-04-04T07:50:48;97281.19;;;6.16;45.75
3697;BME280;60662;48.810;8.872;2023-04-04T07:51:49;97283.13;;;6.03;46.96
3697;BME280;60662;48.810;8.872;2023-04-04T07:52:51;97280.09;;;6.28;46.75
3697;BME280;60662;48.810;8.872;2023-04-04T07:53:54;97277.13;;;6.50;45.72
3697;BME280;60662;48.810;8.872;2023-04-04T07:54:56;97285.91;;;6.90;45.87
3697;BME280;60662;48.810;8.872;2023-04-04T07:55:58;97275.22;;;7.46;44.55
3697;BME280;60662;48.810;8.872;2023-04-04T07:56:59;97275.13;;;7.08;44.79
3697;BME280;60662;48.810;8.872;2023-04-04T07:58:01;97278.91;;;6.48;45.68
3697;BME280;60662;48.810;8.872;2023-04-04T07:59:03;97260.44;;;4.98;47.47
3697;BME280;60662;48.810;8.872;2023-04-04T08:00:06;97278.38;;;5.12;47.37
3697;BME280;60662;48.810;8.872;2023-04-04T08:01:10;97282.09;;;5.54;47.59
3697;BME280;60662;48.810;8.872;2023-04-04T08:02:12;97265.03;;;5.97;46.24
3697;BME280;60662;48.810;8.872;2023-04-04T08:03:13;97282.28;;;6.98;44.67
3697;BME280;60662;48.810;8.872;2023-04-04T08:04:15;97276.56;;;7.23;43.87
3697;BME280;60662;48.810;8.872;2023-04-04T08:05:16;97283.81;;;7.07;43.67
3697;BME280;60662;48.810;8.872;2023-04-04T08:06:18;97274.88;;;7.21;43.65
3697;BME280;60662;48.810;8.872;2023-04-04T08:07:19;97277.19;;;6.47;44.02
3697;BME280;60662;48.810;8.872;2023-04-04T08:08:21;97262.22;;;6.61;45.07
3697;BME280;60662;48.810;8.872;2023-04-04T08:09:23;97260.72;;;6.95;43.56
3697;BME280;60662;48.810;8.872;2023-04-04T08:10:25;97279.00;;;6.89;43.87
3697;BME280;60662;48.810;8.872;2023-04-04T08:11:27;97271.16;;;7.34;44.02
3697;BME280;60662;48.810;8.872;2023-04-04T08:12:28;97255.00;;;7.59;42.79
3697;BME280;60662;48.810;8.872;2023-04-04T08:13:30;97219.44;;;7.61;42.82
3697;BME280;60662;48.810;8.872;2023-04-04T08:14:31;97267.47;;;8.18;43.28
3697;BME280;60662;48.810;8.872;2023-04-04T08:15:33;97273.41;;;7.49;43.84
3697;BME280;60662;48.810;8.872;2023-04-04T08:16:34;97271.03;;;8.14;43.49
3697;BME280;60662;48.810;8.872;2023-04-04T08:17:36;97274.72;;;7.28;41.46
3697;BME280;60662;48.810;8.872;2023-04-04T08:18:38;97279.22;;;5.14;44.76
3697;BME280;60662;48.810;8.872;2023-04-04T08:19:39;97271.50;;;4.31;47.09
3697;BME280;60662;48.810;8.872;2023-04-04T08:20:41;97261.06;;;4.44;47.71
3697;BME280;60662;48.810;8.872;2023-04-04T08:21:43;97270.69;;;5.68;47.39
3697;BME280;60662;48.810;8.872;2023-04-04T08:22:45;97270.94;;;6.09;45.80
3697;BME280;60662;48.810;8.872;2023-04-04T08:23:47;97262.66;;;6.83;45.30
3697;BME280;60662;48.810;8.872;2023-04-04T08:24:48;97262.88;;;7.54;44.27
3697;BME280;60662;48.810;8.872;2023-04-04T08:25:50;97261.97;;;7.58;43.98
3697;BME280;60662;48.810;8.872;2023-04-04T08:26:51;97266.38;;;7.91;43.22
3697;BME280;60662;48.810;8.872;2023-04-04T08:28:05;97267.13;;;6.28;44.48
3697;BME280;60662;48.810;8.872;2023-04-04T08:29:07;97277.91;;;6.05;45.29
3697;BME280;60662;48.810;8.872;2023-04-04T08:30:09;97263.41;;;6.90;44.51
3697;BME280;60662;48.810;8.872;2023-04-04T08:31:11;97267.19;;;7.17;43.66
3697;BME280;60662;48.810;8.872;2023-04-04T08:32:13;97269.75;;;7.57;43.28
3697;BME280;60662;48.810;8.872;2023-04-04T08:33:15;97263.63;;;7.97;42.91
3697;BME280;60662;48.810;8.872;2023-04-04T08:34:17;97272.56;;;8.21;42.12
3697;BME280;60662;48.810;8.872;2023-04-04T08:35:20;97270.28;;;7.33;42.79
3697;BME280;60662;48.810;8.872;2023-04-04T08:36:22;97269.47;;;7.31;43.38
3697;BME280;60662;48.810;8.872;2023-04-04T08:37:23;97269.97;;;7.47;43.41
3697;BME280;60662;48.810;8.872;2023-04-04T08:38:25;97261.53;;;7.38;43.48
3697;BME280;60662;48.810;8.872;2023-04-04T08:39:26;97261.69;;;6.42;44.10
3697;BME280;60662;48.810;8.872;2023-04-04T08:40:28;97265.97;;;7.32;44.49
3697;BME280;60662;48.810;8.872;2023-04-04T08:41:34;97262.84;;;7.95;43.44
3697;BME280;60662;48.810;8.872;2023-04-04T08:42:40;97264.28;;;7.69;43.17
3697;BME280;60662;48.810;8.872;2023-04-04T08:43:46;97264.75;;;7.49;44.06
3697;BME280;60662;48.810;8.872;2023-04-04T08:44:52;97269.50;;;5.87;43.60
3697;BME280;60662;48.810;8.872;2023-04-04T08:45:54;97262.94;;;5.02;46.37
3697;BME280;60662;48.810;8.872;2023-04-04T08:47:00;97285.47;;;4.13;48.83
3697;BME280;60662;48.810;8.872;2023-04-04T08:48:03;97274.75;;;4.52;47.82
3697;BME280;60662;48.810;8.872;2023-04-04T08:49:07;97286.63;;;4.68;47.66
3697;BME280;60662;48.810;8.872;2023-04-04T08:50:11;97286.22;;;4.26;47.68
3697;BME280;60662;48.810;8.872;2023-04-04T08:51:15;97278.66;;;4.03;47.70
3697;BME280;60662;48.810;8.872;2023-04-04T08:52:30;97279.63;;;4.81;47.91
3697;BME280;60662;48.810;8.872;2023-04-04T08:53:35;97279.00;;;3.58;48.37
3697;BME280;60662;48.810;8.872;2023-04-04T08:54:38;97287.56;;;3.66;50.05
3697;BME280;60662;48.810;8.872;2023-04-04T08:55:41;97274.72;;;3.54;48.67
3697;BME280;60662;48.810;8.872;2023-04-04T08:56:44;97283.69;;;2.91;50.56
3697;BME280;60662;48.810;8.872;2023-04-04T08:57:47;97288.81;;;2.92;50.12
3697;BME280;60662;48.810;8.872;2023-04-04T08:58:49;97284.72;;;2.11;51.40
3697;BME280;60662;48.810;8.872;2023-04-04T08:59:50;97283.84;;;2.29;51.18
3697;BME280;60662;48.810;8.872;2023-04-04T09:00:53;97275.03;;;2.92;50.78
3697;BME280;60662;48.810;8.872;2023-04-04T09:02:04;97281.50;;;3.69;50.50
3697;BME280;60662;48.810;8.872;2023-04-04T09:03:20;97282.28;;;4.72;48.84
3697;BME280;60662;48.810;8.872;2023-04-04T09:04:24;97255.81;;;4.47;48.14
3697;BME280;60662;48.810;8.872;2023-04-04T09:05:27;97267.56;;;5.44;47.66
3697;BME280;60662;48.810;8.872;2023-04-04T09:06:33;97269.34;;;5.40;46.64
3697;BME280;60662;48.810;8.872;2023-04-04T09:07:35;97275.19;;;5.56;46.90
3697;BME280;60662;48.810;8.872;2023-04-04T09:08:40;97284.44;;;5.09;45.93
3697;BME280;60662;48.810;8.872;2023-04-04T09:09:46;97278.09;;;3.65;46.95
3697;BME280;60662;48.810;8.872;2023-04-04T09:10:48;97271.63;;;4.19;47.01
3697;BME280;60662;48.810;8.872;2023-04-04T09:11:50;97268.84;;;4.42;47.56
3697;BME280;60662;48.810;8.872;2023-04-04T09:12:52;97277.97;;;3.81;47.91
3697;BME280;60662;48.810;8.872;2023-04-04T09:14:03;97236.16;;;3.27;48.53
3697;BME280;60662;48.810;8.872;2023-04-04T09:15:05;97282.19;;;4.83;47.61
3697;BME280;60662;48.810;8.872;2023-04-04T09:16:06;97278.69;;;5.52;45.83
3697;BME280;60662;48.810;8.872;2023-04-04T09:17:08;97277.00;;;4.83;45.61
3697;BME280;60662;48.810;8.872;2023-04-04T09:18:11;97288.34;;;6.02;45.61
3697;BME280;60662;48.810;8.872;2023-04-04T09:19:12;97280.03;;;6.80;45.20
3697;BME280;60662;48.810;8.872;2023-04-04T09:21:33;97286.41;;;6.63;43.48
3697;BME280;60662;48.810;8.872;2023-04-04T09:22:35;97278.59;;;4.95;43.82
3697;BME280;60662;48.810;8.872;2023-04-04T09:23:44;97279.34;;;2.94;46.29
3697;BME280;60662;48.810;8.872;2023-04-04T09:24:46;97285.72;;;3.81;47.80
3697;BME280;60662;48.810;8.872;2023-04-04T09:25:50;97274.88;;;4.39;46.73
3697;BME280;60662;48.810;8.872;2023-04-04T09:27:04;97274.41;;;5.50;45.98
3697;BME280;60662;48.810;8.872;2023-04-04T09:28:07;97280.78;;;4.54;45.65
3697;BME280;60662;48.810;8.872;2023-04-04T09:29:08;97274.03;;;3.27;46.29
3697;BME280;60662;48.810;8.872;2023-04-04T09:30:10;97284.34;;;3.29;47.52
3697;BME280;60662;48.810;8.872;2023-04-04T09:31:12;97279.88;;;3.58;47.38
3697;BME280;60662;48.810;8.872;2023-04-04T09:32:15;97281.78;;;4.39;46.78
3697;BME280;60662;48.810;8.872;2023-04-04T09:33:19;97278.31;;;3.28;45.61
3697;BME280;60662;48.810;8.872;2023-04-04T09:34:24;97267.56;;;3.88;47.14
3697;BME280;60662;48.810;8.872;2023-04-04T09:35:31;97267.13;;;5.13;45.85
3697;BME280;60662;48.810;8.872;2023-04-04T09:36:33;97277.53;;;5.72;45.01
3697;BME280;60662;48.810;8.872;2023-04-04T09:37:35;97274.50;;;5.42;45.13
3697;BME280;60662;48.810;8.872;2023-04-04T09:38:40;97277.50;;;5.13;45.17
3697;BME280;60662;48.810;8.872;2023-04-04T09:39:46;97278.94;;;5.93;44.82
3697;BME280;60662;48.810;8.872;2023-04-04T09:40:48;97273.84;;;6.87;43.76
3697;BME280;60662;48.810;8.872;2023-04-04T09:41:50;97271.22;;;7.31;43.40
3697;BME280;60662;48.810;8.872;2023-04-04T09:42:53;97273.91;;;7.65;41.76
3697;BME280;60662;48.810;8.872;2023-04-04T09:43:56;97258.66;;;7.88;43.01
3697;BME280;60662;48.810;8.872;2023-04-04T09:44:58;97268.00;;;8.65;41.24
3697;BME280;60662;48.810;8.872;2023-04-04T09:45:59;97273.09;;;6.82;40.80
3697;BME280;60662;48.810;8.872;2023-04-04T09:47:26;97282.00;;;5.62;44.31
3697;BME280;60662;48.810;8.872;2023-04-04T09:48:33;97280.78;;;4.54;44.31
3697;BME280;60662;48.810;8.872;2023-04-04T09:49:35;97280.47;;;3.96;45.57
3697;BME280;60662;48.810;8.872;2023-04-04T09:50:44;97274.34;;;4.87;45.96
3697;BME280;60662;48.810;8.872;2023-04-04T09:51:52;97273.53;;;4.82;46.94
3697;BME280;60662;48.810;8.872;2023-04-04T09:52:56;97267.03;;;6.34;44.74
3697;BME280;60662;48.810;8.872;2023-04-04T09:54:01;97271.50;;;7.17;43.02
3697;BME280;60662;48.810;8.872;2023-04-04T09:55:03;97273.06;;;8.03;41.81
3697;BME280;60662;48.810;8.872;2023-04-04T09:56:05;97270.59;;;8.31;41.34
3697;BME280;60662;48.810;8.872;2023-04-04T09:57:07;97274.81;;;6.81;42.57
3697;BME280;60662;48.810;8.872;2023-04-04T09:58:13;97278.16;;;8.40;42.18
3697;BME280;60662;48.810;8.872;2023-04-04T09:59:16;97279.41;;;8.93;41.12
3697;BME280;60662;48.810;8.872;2023-04-04T10:00:19;97272.78;;;8.49;40.97
3697;BME280;60662;48.810;8.872;2023-04-04T10:01:22;97284.13;;;8.78;42.32
3697;BME280;60662;48.810;8.872;2023-04-04T10:02:24;97277.56;;;8.65;41.16
3697;BME280;60662;48.810;8.872;2023-04-04T10:03:27;97263.13;;;9.44;40.56
3697;BME280;60662;48.810;8.872;2023-04-04T10:04:30;97275.31;;;9.74;40.84
3697;BME280;60662;48.810;8.872;2023-04-04T10:05:32;97269.75;;;10.38;39.99
3697;BME280;60662;48.810;8.872;2023-04-04T10:06:35;97272.69;;;10.54;39.37
3697;BME280;60662;48.810;8.872;2023-04-04T10:07:38;97280.09;;;10.41;38.35
3697;BME280;60662;48.810;8.872;2023-04-04T10:08:40;97282.97;;;10.05;39.47
3697;BME280;60662;48.810;8.872;2023-04-04T10:09:45;97274.81;;;8.70;38.37
3697;BME280;60662;48.810;8.872;2023-04-04T10:10:51;97262.66;;;8.70;38.48
3697;BME280;60662;48.810;8.872;2023-04-04T10:12:10;97279.97;;;9.34;38.81
3697;BME280;60662;48.810;8.872;2023-04-04T10:13:11;97271.47;;;9.27;38.42
3697;BME280;60662;48.810;8.872;2023-04-04T10:14:14;97277.09;;;9.72;39.28
3697;BME280;60662;48.810;8.872;2023-04-04T10:15:15;97270.03;;;8.54;40.39
3697;BME280;60662;48.810;8.872;2023-04-04T10:16:17;97264.13;;;10.24;39.51
3697;BME280;60662;48.810;8.872;2023-04-04T10:17:19;97269.28;;;10.52;37.70
3697;BME280;60662;48.810;8.872;2023-04-04T10:18:25;97267.34;;;10.59;37.72
3697;BME280;60662;48.810;8.872;2023-04-04T10:19:27;97260.16;;;11.13;38.03
3697;BME280;60662;48.810;8.872;2023-04-04T10:20:29;97267.97;;;11.60;37.36
3697;BME280;60662;48.810;8.872;2023-04-04T10:21:32;97265.09;;;11.67;37.81
3697;BME280;60662;48.810;8.872;2023-04-04T10:22:36;97263.78;;;11.79;37.93
3697;BME280;60662;48.810;8.872;2023-04-04T10:23:39;97264.44;;;12.28;36.44
3697;BME280;60662;48.810;8.872;2023-04-04T10:24:41;97259.72;;;11.25;37.33
3697;BME280;60662;48.810;8.872;2023-04-04T10:25:42;97264.63;;;11.79;37.00
3697;BME280;60662;48.810;8.872;2023-04-04T10:26:44;97272.53;;;8.59;38.35
3697;BME280;60662;48.810;8.872;2023-04-04T10:27:46;97265.94;;;9.38;37.85
3697;BME280;60662;48.810;8.872;2023-04-04T10:28:50;97260.13;;;8.67;37.43
3697;BME280;60662;48.810;8.872;2023-04-04T10:29:52;97259.06;;;9.36;38.17
3697;BME280;60662;48.810;8.872;2023-04-04T10:32:08;97265.56;;;11.08;36.66
3697;BME280;60662;48.810;8.872;2023-04-04T10:33:25;97265.41;;;10.12;36.52
3697;BME280;60662;48.810;8.872;2023-04-04T10:34:38;97268.78;;;10.42;37.56
3697;BME280;60662;48.810;8.872;2023-04-04T10:35:43;97268.22;;;11.76;36.32
3697;BME280;60662;48.810;8.872;2023-04-04T10:36:49;97259.47;;;12.43;35.41
3697;BME280;60662;48.810;8.872;2023-04-04T10:37:56;97260.16;;;13.27;34.32
3697;BME280;60662;48.810;8.872;2023-04-04T10:39:21;97260.00;;;12.08;33.07
3697;BME280;60662;48.810;8.872;2023-04-04T10:40:30;97253.28;;;11.10;35.45
3697;BME280;60662;48.810;8.872;2023-04-04T10:41:35;97267.31;;;12.00;35.00
3697;BME280;60662;48.810;8.872;2023-04-04T10:42:46;97251.97;;;12.95;34.82
3697;BME280;60662;48.810;8.872;2023-04-04T10:43:48;97273.69;;;12.37;34.85
3697;BME280;60662;48.810;8.872;2023-04-04T10:44:52;97269.34;;;9.69;37.62
3697;BME280;60662;48.810;8.872;2023-04-04T10:45:57;97272.31;;;11.38;36.22
3697;BME280;60662;48.810;8.872;2023-04-04T10:47:18;97280.31;;;11.79;36.65
3697;BME280;60662;48.810;8.872;2023-04-04T10:48:22;97269.75;;;13.27;35.06
3697;BME280;60662;48.810;8.872;2023-04-04T10:49:26;97270.56;;;13.29;33.66
3697;BME280;60662;48.810;8.872;2023-04-04T10:50:28;97258.13;;;10.98;34.44
3697;BME280;60662;48.810;8.872;2023-04-04T10:51:32;97263.28;;;10.99;34.66
3697;BME280;60662;48.810;8.872;2023-04-04T10:52:45;97257.06;;;12.38;34.47
3697;BME280;60662;48.810;8.872;2023-04-04T10:53:48;97243.25;;;13.33;34.57
3697;BME280;60662;48.810;8.872;2023-04-04T10:54:55;97250.19;;;12.96;33.55
3697;BME280;60662;48.810;8.872;2023-04-04T10:55:59;97254.03;;;13.07;34.57
3697;BME280;60662;48.810;8.872;2023-04-04T10:57:01;97266.38;;;13.05;34.10
3697;BME280;60662;48.810;8.872;2023-04-04T10:58:04;97268.31;;;13.59;34.09
3697;BME280;60662;48.810;8.872;2023-04-04T10:59:14;97262.81;;;14.02;33.61
3697;BME280;60662;48.810;8.872;2023-04-04T11:00:17;97265.38;;;14.56;33.62
3697;BME280;60662;48.810;8.872;2023-04-04T11:01:19;97260.00;;;14.77;33.80
3697;BME280;60662;48.810;8.872;2023-04-04T11:02:42;97256.34;;;14.79;32.41
3697;BME280;60662;48.810;8.872;2023-04-04T11:04:18;97261.38;;;14.66;31.96
3697;BME280;60662;48.810;8.872;2023-04-04T11:05:35;97253.41;;;11.07;35.03
3697;BME280;60662;48.810;8.872;2023-04-04T11:07:07;97253.47;;;11.98;35.74
3697;BME280;60662;48.810;8.872;2023-04-04T11:08:10;97256.19;;;10.27;34.67
3697;BME280;60662;48.810;8.872;2023-04-04T11:09:14;97260.19;;;10.10;36.69
3697;BME280;60662;48.810;8.872;2023-04-04T11:10:21;97255.16;;;11.99;35.15
3697;BME280;60662;48.810;8.872;2023-04-04T11:11:24;97254.03;;;11.38;34.27
3697;BME280;60662;48.810;8.872;2023-04-04T11:12:30;97247.84;;;12.89;35.23
3697;BME280;60662;48.810;8.872;2023-04-04T11:13:34;97250.44;;;14.04;35.05
3697;BME280;60662;48.810;8.872;2023-04-04T11:14:36;97249.16;;;14.48;34.23
3697;BME280;60662;48.810;8.872;2023-04-04T11:17:00;97253.00;;;14.23;33.80
3697;BME280;60662;48.810;8.872;2023-04-04T11:18:10;97234.69;;;14.39;34.30
3697;BME280;60662;48.810;8.872;2023-04-04T11:19:32;97238.03;;;15.27;33.26
3697;BME280;60662;48.810;8.872;2023-04-04T11:20:34;97250.88;;;15.49;32.26
3697;BME280;60662;48.810;8.872;2023-04-04T11:21:37;97243.41;;;12.09;31.74
3697;BME280;60662;48.810;8.872;2023-04-04T11:22:39;97243.34;;;12.31;34.08
3697;BME280;60662;48.810;8.872;2023-04-04T11:24:58;97233.44;;;12.17;33.58
3697;BME280;60662;48.810;8.872;2023-04-04T11:26:00;97240.31;;;12.20;34.56
3697;BME280;60662;48.810;8.872;2023-04-04T11:27:04;97241.63;;;11.65;33.08
3697;BME280;60662;48.810;8.872;2023-04-04T11:28:11;97244.00;;;9.74;36.80
3697;BME280;60662;48.810;8.872;2023-04-04T11:29:50;97245.16;;;12.08;37.46
3697;BME280;60662;48.810;8.872;2023-04-04T11:32:41;97242.84;;;13.80;34.43
3697;BME280;60662;48.810;8.872;2023-04-04T11:34:12;97233.00;;;14.20;32.40
3697;BME280;60662;48.810;8.872;2023-04-04T11:35:14;97230.44;;;14.19;33.16
3697;BME280;60662;48.810;8.872;2023-04-04T11:36:48;97238.94;;;14.42;33.80
3697;BME280;60662;48.810;8.872;2023-04-04T11:38:57;97240.25;;;14.85;33.24
3697;BME280;60662;48.810;8.872;2023-04-04T11:40:07;97226.03;;;14.54;33.01
3697;BME280;60662;48.810;8.872;2023-04-04T11:41:09;97230.53;;;14.52;33.20
3697;BME280;60662;48.810;8.872;2023-04-04T11:42:12;97236.22;;;14.96;32.77
3697;BME280;60662;48.810;8.872;2023-04-04T11:43:14;97233.22;;;14.51;32.37
3697;BME280;60662;48.810;8.872;2023-04-04T11:44:18;97234.59;;;15.09;32.84
3697;BME280;60662;48.810;8.872;2023-04-04T11:45:19;97235.03;;;14.68;31.39
3697;BME280;60662;48.810;8.872;2023-04-04T11:46:22;97229.06;;;14.98;31.83
3697;BME280;60662;48.810;8.872;2023-04-04T11:47:24;97230.75;;;15.48;31.66
3697;BME280;60662;48.810;8.872;2023-04-04T11:48:25;97239.66;;;15.62;30.84
3697;BME280;60662;48.810;8.872;2023-04-04T11:49:28;97243.25;;;14.78;30.88
3697;BME280;60662;48.810;8.872;2023-04-04T11:50:35;97213.63;;;14.92;30.97
3697;BME280;60662;48.810;8.872;2023-04-04T11:51:40;97210.56;;;14.99;31.01
3697;BME280;60662;48.810;8.872;2023-04-04T11:52:42;97226.06;;;15.70;30.81
3697;BME280;60662;48.810;8.872;2023-04-04T11:53:45;97239.41;;;15.50;32.71
3697;BME280;60662;48.810;8.872;2023-04-04T11:54:48;97239.03;;;11.19;34.08
3697;BME280;60662;48.810;8.872;2023-04-04T11:55:50;97230.78;;;11.30;34.89
3697;BME280;60662;48.810;8.872;2023-04-04T11:56:53;97224.25;;;12.89;33.23
3697;BME280;60662;48.810;8.872;2023-04-04T11:57:54;97228.00;;;13.79;32.59
3697;BME280;60662;48.810;8.872;2023-04-04T11:58:58;97227.44;;;13.92;32.27
3697;BME280;60662;48.810;8.872;2023-04-04T12:00:12;97229.81;;;13.96;33.51
3697;BME280;60662;48.810;8.872;2023-04-04T12:01:27;97228.53;;;11.43;34.76
3697;BME280;60662;48.810;8.872;2023-04-04T12:02:31;97226.16;;;11.37;33.87
3697;BME280;60662;48.810;8.872;2023-04-04T12:03:34;97225.31;;;9.59;36.65
3697;BME280;60662;48.810;8.872;2023-04-04T12:04:37;97221.47;;;8.85;36.84
3697;BME280;60662;48.810;8.872;2023-04-04T12:05:43;97216.41;;;8.48;38.02
3697;BME280;60662;48.810;8.872;2023-04-04T12:06:49;97221.31;;;10.55;36.51
3697;BME280;60662;48.810;8.872;2023-04-04T12:07:54;97212.59;;;11.27;36.75
3697;BME280;60662;48.810;8.872;2023-04-04T12:08:55;97216.97;;;12.15;35.69
3697;BME280;60662;48.810;8.872;2023-04-04T12:09:57;97221.00;;;13.03;35.79
3697;BME280;60662;48.810;8.872;2023-04-04T12:11:03;97209.44;;;13.27;34.76
3697;BME280;60662;48.810;8.872;2023-04-04T12:12:07;97210.31;;;13.65;34.54
3697;BME280;60662;48.810;8.872;2023-04-04T12:13:13;97210.06;;;14.24;34.27
3697;BME280;60662;48.810;8.872;2023-04-04T12:14:20;97211.28;;;14.34;34.46
3697;BME280;60662;48.810;8.872;2023-04-04T12:15:22;97218.81;;;14.93;33.98
3697;BME280;60662;48.810;8.872;2023-04-04T12:16:23;97215.81;;;14.48;33.91
3697;BME280;60662;48.810;8.872;2023-04-04T12:17:28;97221.00;;;14.50;34.34
3697;BME280;60662;48.810;8.872;2023-04-04T12:18:30;97213.00;;;14.86;34.48
3697;BME280;60662;48.810;8.872;2023-04-04T12:19:35;97213.47;;;14.44;34.04
3697;BME280;60662;48.810;8.872;2023-04-04T12:20:38;97209.66;;;14.67;33.80
3697;BME280;60662;48.810;8.872;2023-04-04T12:21:41;97212.38;;;14.30;33.95
3697;BME280;60662;48.810;8.872;2023-04-04T12:22:43;97206.69;;;15.07;34.12
3697;BME280;60662;48.810;8.872;2023-04-04T12:23:48;97212.03;;;15.05;33.53
3697;BME280;60662;48.810;8.872;2023-04-04T12:24:50;97208.06;;;15.46;32.52
3697;BME280;60662;48.810;8.872;2023-04-04T12:25:52;97204.88;;;14.91;32.97
3697;BME280;60662;48.810;8.872;2023-04-04T12:26:56;97215.81;;;12.43;34.03
3697;BME280;60662;48.810;8.872;2023-04-04T12:27:59;97205.63;;;13.34;33.96
3697;BME280;60662;48.810;8.872;2023-04-04T12:29:03;97203.25;;;14.55;34.12
3697;BME280;60662;48.810;8.872;2023-04-04T12:30:06;97207.81;;;14.69;33.18
3697;BME280;60662;48.810;8.872;2023-04-04T12:31:15;97204.44;;;14.83;32.36
3697;BME280;60662;48.810;8.872;2023-04-04T12:32:17;97210.66;;;14.98;32.47
3697;BME280;60662;48.810;8.872;2023-04-04T12:33:19;97195.94;;;15.11;32.67
3697;BME280;60662;48.810;8.872;2023-04-04T12:34:23;97210.97;;;15.25;31.70
3697;BME280;60662;48.810;8.872;2023-04-04T12:35:24;97201.44;;;15.39;31.43
3697;BME280;60662;48.810;8.872;2023-04-04T12:36:28;97204.47;;;14.99;31.44
3697;BME280;60662;48.810;8.872;2023-04-04T12:37:30;97205.94;;;15.52;31.69
3697;BME280;60662;48.810;8.872;2023-04-04T12:38:31;97194.00;;;14.81;30.65
3697;BME280;60662;48.810;8.872;2023-04-04T12:39:33;97206.59;;;14.41;31.32
3697;BME280;60662;48.810;8.872;2023-04-04T12:40:36;97203.00;;;14.77;32.24
3697;BME280;60662;48.810;8.872;2023-04-04T12:41:51;97210.16;;;14.91;31.83
3697;BME280;60662;48.810;8.872;2023-04-04T12:42:53;97207.41;;;14.42;31.22
3697;BME280;60662;48.810;8.872;2023-04-04T12:43:59;97203.59;;;11.79;32.54
3697;BME280;60662;48.810;8.872;2023-04-04T12:45:02;97200.91;;;11.80;32.88
3697;BME280;60662;48.810;8.872;2023-04-04T12:46:06;97196.56;;;12.84;33.68
3697;BME280;60662;48.810;8.872;2023-04-04T12:47:08;97203.06;;;13.70;33.37
3697;BME280;60662;48.810;8.872;2023-04-04T12:48:13;97203.78;;;14.09;33.35
3697;BME280;60662;48.810;8.872;2023-04-04T12:49:19;97204.56;;;14.29;32.28
3697;BME280;60662;48.810;8.872;2023-04-04T12:50:23;97198.47;;;14.11;31.77
3697;BME280;60662;48.810;8.872;2023-04-04T12:51:30;97196.84;;;14.26;32.84
3697;BME280;60662;48.810;8.872;2023-04-04T12:52:38;97194.69;;;14.34;33.02
3697;BME280;60662;48.810;8.872;2023-04-04T12:53:58;97195.59;;;13.80;33.22
3697;BME280;60662;48.810;8.872;2023-04-04T12:55:07;97192.91;;;13.99;32.76
3697;BME280;60662;48.810;8.872;2023-04-04T12:56:09;97188.59;;;14.16;32.49